Ocean Sapphire — VRKL8 — position and weather

sailwx.info

Track history (hours):
 
Tides and Currents Weather Stations Pressure Air Temp Water Temp Dewpoint Dewpoint Depression Visibility Wind Speed Wind Dir Waves Ship Positions

Ocean Sapphire

Last reported at 2018-Feb-11 17:05 UTC. Time now 2018-Feb-19 23:36 UTC.
Position N 23°46' E 123°09'.
Warning: this ship's position is 8 days out of date.

Length 229 m; draft 9.1 m.

Type: Cargo ship. MMSI: 477065400.

Date/timePositionNaut miles runAvg speedWind from/ knotsBaromVisibWave heightAir tempDewpointWater temp
2018-Feb-11 17:05N 23°46' E 123°09'210.7
2018-Feb-11 16:55N 23°48' E 123°08'410.9
2018-Feb-11 16:31N 23°51' E 123°05'510.7
2018-Feb-11 16:00N 23°55' E 123°01'510.7
2018-Feb-11 15:30N 23°60' E 122°58'510.6
2018-Feb-11 15:00N 24°04' E 122°54'510.7
2018-Feb-11 14:30N 24°08' E 122°50'510.8
2018-Feb-11 14:01N 24°12' E 122°46'510.4
2018-Feb-11 13:31N 24°16' E 122°43'510.4
2018-Feb-11 13:00N 24°20' E 122°39'5 9.9
2018-Feb-11 12:31N 24°24' E 122°36'510.4
2018-Feb-11 12:00N 24°29' E 122°34'510.3
2018-Feb-11 11:31N 24°34' E 122°32'510.5
2018-Feb-11 11:01N 24°38' E 122°29'510.6
2018-Feb-11 10:31N 24°42' E 122°25'510.2
2018-Feb-11 10:00N 24°46' E 122°21'510.0
2018-Feb-11 09:31N 24°50' E 122°18'5 9.7
2018-Feb-11 09:01N 24°54' E 122°15'5 9.0
2018-Feb-11 08:30N 24°58' E 122°12'1510.4
2018-Feb-11 07:03N 25°09' E 122°01'011.1
2018-Feb-11 07:01N 25°09' E 122°01'611.5
2018-Feb-11 06:30N 25°14' E 121°57'510.9
2018-Feb-11 06:00N 25°17' E 121°52'510.2
2018-Feb-11 05:30N 25°20' E 121°47'510.1
2018-Feb-11 05:00N 25°24' E 121°43'13 9.2
2018-Feb-11 03:37N 25°26' E 121°29'110.1
2018-Feb-11 03:29N 25°25' E 121°28'510.2
2018-Feb-11 03:00N 25°24' E 121°23'5 9.3
2018-Feb-11 02:27N 25°22' E 121°17'4 8.9
2018-Feb-11 02:00N 25°20' E 121°13'510.1
2018-Feb-11 01:30N 25°15' E 121°14'510.1
2018-Feb-11 01:00N 25°11' E 121°16'3 6.2
2018-Feb-11 00:30N 25°08' E 121°18'0 0.1
2018-Feb-11 00:00N 25°08' E 121°18'0 0.0
2018-Feb-10 23:21N 25°08' E 121°18'0 0.0
2018-Feb-10 22:57N 25°08' E 121°18'0 0.0
2018-Feb-10 22:30N 25°08' E 121°18'0 0.0
2018-Feb-10 22:00N 25°08' E 121°18'0 0.0
2018-Feb-10 21:30N 25°08' E 121°18'0 0.0
2018-Feb-10 21:00N 25°08' E 121°18'0 0.0
2018-Feb-10 20:30N 25°08' E 121°18'0 0.0
2018-Feb-10 19:57N 25°08' E 121°18'0 0.0
2018-Feb-10 19:27N 25°08' E 121°18'0 0.0
2018-Feb-10 19:00N 25°08' E 121°18'0 0.0
2018-Feb-10 18:27N 25°08' E 121°18'0 0.0
2018-Feb-10 17:51N 25°08' E 121°18'0 0.0
2018-Feb-10 17:30N 25°08' E 121°18'0 0.0
2018-Feb-10 17:00N 25°08' E 121°18'0 0.0
2018-Feb-10 16:27N 25°08' E 121°18'0 0.0
2018-Feb-10 16:00N 25°08' E 121°18'0 0.0
2018-Feb-10 15:30N 25°08' E 121°18'0 0.0
2018-Feb-10 15:00N 25°08' E 121°18'0 0.0
2018-Feb-10 14:30N 25°08' E 121°18'0 0.0
2018-Feb-10 14:00N 25°08' E 121°18'0 0.1
2018-Feb-10 13:30N 25°08' E 121°18'0 0.1
2018-Feb-10 13:00N 25°08' E 121°18'0 0.0
2018-Feb-10 12:24N 25°08' E 121°18'0 0.1
2018-Feb-10 11:57N 25°08' E 121°18'0 0.0
2018-Feb-10 11:18N 25°08' E 121°18'0 0.0
2018-Feb-10 10:57N 25°08' E 121°18'0 0.1
2018-Feb-10 10:30N 25°08' E 121°18'0 0.0
2018-Feb-10 09:57N 25°08' E 121°18'0 0.1
2018-Feb-10 09:30N 25°08' E 121°18'0 0.1
2018-Feb-10 09:00N 25°08' E 121°18'0 0.0
2018-Feb-10 08:30N 25°08' E 121°18'0 0.1
2018-Feb-10 07:54N 25°08' E 121°18'0 0.1
2018-Feb-10 07:30N 25°08' E 121°18'0 0.0
2018-Feb-10 06:57N 25°08' E 121°18'0 0.1
2018-Feb-10 06:27N 25°08' E 121°18'0 0.1
2018-Feb-10 06:00N 25°08' E 121°18'0 0.1
2018-Feb-10 05:30N 25°08' E 121°18'0 0.1
2018-Feb-10 04:57N 25°08' E 121°18'0 0.1
2018-Feb-10 04:30N 25°08' E 121°18'0 0.0
2018-Feb-10 04:00N 25°08' E 121°18'0 0.1
2018-Feb-10 03:30N 25°08' E 121°18'0 0.0
2018-Feb-10 03:00N 25°08' E 121°18'0 0.0
2018-Feb-10 02:27N 25°08' E 121°18'0 0.1
2018-Feb-10 02:00N 25°08' E 121°18'0 0.1
2018-Feb-10 01:27N 25°08' E 121°18'0 0.0
2018-Feb-10 01:00N 25°08' E 121°18'0 0.0
2018-Feb-10 00:30N 25°08' E 121°18'0 0.0
2018-Feb-09 23:54N 25°08' E 121°18'0 0.1
2018-Feb-09 23:30N 25°08' E 121°18'0 0.1
2018-Feb-09 23:00N 25°08' E 121°18'0 0.2
2018-Feb-09 22:45N 25°08' E 121°18'1 0.0
2018-Feb-08 08:00N 25°08' E 121°17'2 4.2
2018-Feb-08 07:30N 25°09' E 121°15'11 2.6
2018-Feb-08 03:30N 25°20' E 121°12'4 2.0
2018-Feb-08 01:30N 25°21' E 121°08'2 4.2
2018-Feb-08 01:00N 25°21' E 121°05'2 4.4
2018-Feb-08 00:30N 25°20' E 121°03'2 4.8
2018-Feb-08 00:00N 25°19' E 121°01'2 5.0
2018-Feb-07 23:30N 25°18' E 120°59'3 5.1
2018-Feb-07 22:59N 25°16' E 120°57'2 4.8
2018-Feb-07 22:30N 25°14' E 120°55'3 0.2
2018-Feb-07 03:40N 25°13' E 120°58'1 7.8
2018-Feb-07 03:30N 25°13' E 120°60'4 8.3
2018-Feb-07 03:00N 25°15' E 121°04'9 6.9
2018-Feb-07 01:44N 25°21' E 121°11'3 0.7
2018-Feb-06 22:10N 25°23' E 121°11'1 4.0
2018-Feb-06 21:57N 25°23' E 121°11'2 4.1
2018-Feb-06 21:28N 25°22' E 121°09'2 3.7
2018-Feb-06 20:58N 25°21' E 121°07'1 0.7
2018-Feb-06 19:29N 25°21' E 121°07'1 1.7
2018-Feb-06 18:56N 25°20' E 121°08'1 2.0
2018-Feb-06 18:26N 25°20' E 121°09'1 2.2
2018-Feb-06 17:47N 25°21' E 121°11'1 2.6
2018-Feb-06 17:30N 25°21' E 121°12'1 2.8
2018-Feb-06 17:00N 25°21' E 121°13'2 4.6
2018-Feb-06 16:30N 25°22' E 121°15'4 8.7
2018-Feb-06 16:00N 25°24' E 121°19'1 1.3
2018-Feb-06 15:30N 25°24' E 121°19'1 1.6
2018-Feb-06 15:00N 25°23' E 121°19'1 1.8
2018-Feb-06 14:29N 25°22' E 121°18'1 2.1
2018-Feb-06 13:57N 25°21' E 121°17'1 2.3
2018-Feb-06 13:26N 25°21' E 121°16'1 2.6
2018-Feb-06 13:00N 25°20' E 121°15'1 2.8
2018-Feb-06 12:30N 25°19' E 121°14'2 3.3
2018-Feb-06 12:00N 25°19' E 121°12'3 3.9
2018-Feb-06 11:16N 25°18' E 121°09'1 4.0
2018-Feb-06 10:57N 25°17' E 121°08'2 4.1
2018-Feb-06 10:30N 25°17' E 121°06'2 4.1
2018-Feb-06 10:00N 25°15' E 121°04'2 4.1
2018-Feb-06 09:30N 25°14' E 121°03'2 3.8
2018-Feb-06 09:00N 25°12' E 121°02'2 3.5
2018-Feb-06 08:30N 25°11' E 121°01'3 3.4
2018-Feb-06 07:30N 25°08' E 120°58'2 2.5
2018-Feb-06 06:30N 25°06' E 120°57'2 3.8
2018-Feb-06 05:57N 25°04' E 120°55'2 0.6
2018-Feb-06 02:56N 25°03' E 120°54'4 8.0
2018-Feb-06 02:30N 25°06' E 120°57'4 7.8
2018-Feb-06 02:00N 25°08' E 120°60'4 7.4
2018-Feb-06 01:30N 25°11' E 121°02'4 7.1
2018-Feb-06 00:59N 25°14' E 121°05'4 7.4
2018-Feb-06 00:30N 25°17' E 121°07'2 4.9
2018-Feb-06 00:00N 25°19' E 121°09'3 5.9
2018-Feb-05 23:29N 25°21' E 121°11'2 4.4
2018-Feb-05 22:59N 25°22' E 121°14'6 3.5
2018-Feb-05 21:17N 25°25' E 121°19'1 2.1
2018-Feb-05 20:54N 25°26' E 121°19'7 4.1
2018-Feb-05 19:13N 25°23' E 121°12'1 3.2
2018-Feb-05 19:00N 25°22' E 121°11'1 2.9
2018-Feb-05 18:30N 25°22' E 121°10'1 2.7
2018-Feb-05 18:00N 25°21' E 121°09'1 2.2
2018-Feb-05 17:30N 25°21' E 121°08'1 1.6
2018-Feb-05 17:00N 25°20' E 121°07'1 1.3
2018-Feb-05 16:30N 25°20' E 121°06'1 1.0
2018-Feb-05 15:30N 25°19' E 121°06'0 0.8
2018-Feb-05 15:00N 25°19' E 121°05'0 1.0
2018-Feb-05 14:30N 25°18' E 121°05'1 1.4
2018-Feb-05 14:00N 25°18' E 121°05'1 1.8
2018-Feb-05 13:30N 25°17' E 121°04'1 2.0
2018-Feb-05 13:00N 25°16' E 121°03'1 2.2
2018-Feb-05 12:29N 25°16' E 121°02'1 2.4
2018-Feb-05 11:55N 25°15' E 121°01'1 2.9
2018-Feb-05 11:29N 25°14' E 121°00'1 3.0
2018-Feb-05 11:00N 25°13' E 120°59'6 3.6
2018-Feb-05 09:18N 25°08' E 120°54'2 5.9
2018-Feb-05 09:00N 25°07' E 120°53'3 2.5
2018-Feb-05 07:53N 25°05' E 120°51'1 3.1
2018-Feb-05 07:29N 25°05' E 120°50'11 4.8
2018-Feb-05 05:10N 25°13' E 120°58'1 7.9
2018-Feb-05 04:59N 25°14' E 120°59'4 8.1
2018-Feb-05 04:30N 25°16' E 121°02'5 8.2
2018-Feb-05 03:56N 25°20' E 121°06'4 8.4
2018-Feb-05 03:31N 25°22' E 121°09'4 8.8
2018-Feb-05 03:00N 25°25' E 121°13'1 1.0
2018-Feb-05 01:35N 25°23' E 121°13'0 2.6
2018-Feb-05 01:30N 25°23' E 121°13'1 2.5
2018-Feb-05 01:00N 25°22' E 121°14'1 2.2
2018-Feb-05 00:30N 25°21' E 121°15'1 2.1
2018-Feb-05 00:00N 25°20' E 121°15'1 2.1
2018-Feb-04 23:30N 25°19' E 121°15'2 3.7
2018-Feb-04 23:00N 25°18' E 121°15'2 3.4
2018-Feb-04 22:30N 25°17' E 121°13'2 3.6
2018-Feb-04 21:59N 25°16' E 121°11'2 3.1
2018-Feb-04 21:30N 25°15' E 121°10'2 3.7
2018-Feb-04 20:59N 25°14' E 121°08'4 3.9
2018-Feb-04 20:00N 25°12' E 121°05'2 3.6
2018-Feb-04 19:30N 25°11' E 121°03'2 3.5
2018-Feb-04 19:00N 25°10' E 121°01'2 4.1
2018-Feb-04 18:28N 25°09' E 120°59'2 3.8
2018-Feb-04 18:00N 25°08' E 120°58'2 3.6
2018-Feb-04 17:30N 25°06' E 120°56'5 2.3
2018-Feb-04 15:30N 25°04' E 120°52'1 1.9
2018-Feb-04 15:00N 25°03' E 120°52'3 1.8
2018-Feb-04 13:28N 25°01' E 120°50'4 2.2
2018-Feb-04 11:37N 24°58' E 120°47'13 2.6
2018-Feb-04 06:28N 25°06' E 120°58'4 8.5
2018-Feb-04 06:00N 25°09' E 121°01'4 7.1
2018-Feb-04 05:30N 25°11' E 121°05'510.6
2018-Feb-04 05:00N 25°15' E 121°09'714.1
2018-Feb-04 04:30N 25°19' E 121°15'4 4.8
2018-Feb-04 03:46N 25°21' E 121°18'0 1.4
2018-Feb-04 03:28N 25°21' E 121°18'1 1.3
2018-Feb-04 02:56N 25°21' E 121°17'1 1.1
2018-Feb-04 02:28N 25°20' E 121°17'1 0.9
2018-Feb-04 01:56N 25°20' E 121°16'0 1.0
2018-Feb-04 01:28N 25°20' E 121°16'1 1.5
2018-Feb-04 01:00N 25°19' E 121°15'1 1.8
2018-Feb-04 00:30N 25°19' E 121°14'1 2.0
2018-Feb-04 00:00N 25°18' E 121°13'1 2.8
2018-Feb-03 23:30N 25°18' E 121°12'1 3.0
2018-Feb-03 23:01N 25°17' E 121°10'2 3.7
2018-Feb-03 22:30N 25°16' E 121°09'2 3.8
2018-Feb-03 22:00N 25°15' E 121°08'2 3.6
2018-Feb-03 21:30N 25°13' E 121°06'2 3.3
2018-Feb-03 21:00N 25°13' E 121°04'2 3.5
2018-Feb-03 20:30N 25°13' E 121°03'2 3.7
2018-Feb-03 19:58N 25°12' E 121°00'6 4.0
2018-Feb-03 18:31N 25°08' E 120°55'2 3.6
2018-Feb-03 18:00N 25°07' E 120°54'2 3.7
2018-Feb-03 17:24N 25°06' E 120°52'3 3.3
2018-Feb-03 16:35N 25°04' E 120°49'2 2.6
2018-Feb-03 15:51N 25°03' E 120°48'16 5.9
2018-Feb-03 13:05N 25°11' E 121°04'1 8.5
2018-Feb-03 13:00N 25°11' E 121°04'4 8.5
2018-Feb-03 12:30N 25°13' E 121°08'4 8.3
2018-Feb-03 12:00N 25°15' E 121°12'4 7.8
2018-Feb-03 11:30N 25°18' E 121°16'4 7.3
2018-Feb-03 10:59N 25°20' E 121°19'3 6.5
2018-Feb-03 10:30N 25°22' E 121°22'2 3.3
2018-Feb-03 10:00N 25°21' E 121°20'2 4.2
2018-Feb-03 09:30N 25°20' E 121°19'2 3.1
2018-Feb-03 09:00N 25°19' E 121°17'2 4.6
2018-Feb-03 08:30N 25°18' E 121°15'2 4.2
2018-Feb-03 08:00N 25°16' E 121°13'9 6.1
2018-Feb-03 06:30N 25°11' E 121°05'510.2
2018-Feb-03 05:58N 25°08' E 121°00'4 8.3
2018-Feb-03 05:30N 25°05' E 120°57'2 3.1
2018-Feb-03 04:59N 25°04' E 120°56'3 2.5
2018-Feb-03 03:42N 25°02' E 120°53'1 2.3
2018-Feb-03 03:13N 25°01' E 120°52'3 1.3
2018-Feb-03 01:13N 25°02' E 120°55'410.8
2018-Feb-03 00:52N 25°04' E 120°58'3 9.1
2018-Feb-03 00:29N 25°06' E 121°01'4 8.9
2018-Feb-03 00:00N 25°09' E 121°05'4 8.5
2018-Feb-02 23:29N 25°12' E 121°08'4 8.1
2018-Feb-02 23:01N 25°15' E 121°11'4 7.4
2018-Feb-02 22:30N 25°17' E 121°14'4 6.5
2018-Feb-02 21:50N 25°20' E 121°18'2 5.9
2018-Feb-02 21:27N 25°22' E 121°20'1 1.8
2018-Feb-02 20:57N 25°23' E 121°20'1 3.1
2018-Feb-02 20:31N 25°22' E 121°19'2 3.8
2018-Feb-02 20:00N 25°21' E 121°17'5 4.8
2018-Feb-02 19:00N 25°18' E 121°12'3 5.3
2018-Feb-02 18:30N 25°16' E 121°10'2 4.8
2018-Feb-02 18:00N 25°15' E 121°08'3 6.5
2018-Feb-02 17:30N 25°13' E 121°05'2 4.5
2018-Feb-02 17:00N 25°12' E 121°03'2 3.5
2018-Feb-02 16:30N 25°11' E 121°02'4 4.0
2018-Feb-02 15:29N 25°08' E 120°59'3 3.5
2018-Feb-02 14:31N 25°05' E 120°56'1 2.7
2018-Feb-02 14:00N 25°04' E 120°55'3 1.0
2018-Feb-02 11:06N 25°04' E 120°58'1 7.3
2018-Feb-02 11:00N 25°04' E 120°59'4 7.2
2018-Feb-02 10:29N 25°06' E 121°02'3 7.0
2018-Feb-02 10:00N 25°08' E 121°05'3 6.4
2018-Feb-02 09:30N 25°10' E 121°08'3 6.1
2018-Feb-02 09:00N 25°12' E 121°10'3 6.6
2018-Feb-02 08:30N 25°14' E 121°13'3 6.5
2018-Feb-02 08:01N 25°16' E 121°16'4 7.3
2018-Feb-02 07:30N 25°18' E 121°20'4 7.1
2018-Feb-02 07:00N 25°20' E 121°23'1 2.1
2018-Feb-02 06:31N 25°21' E 121°21'3 6.5
2018-Feb-02 06:00N 25°19' E 121°18'2 4.3
2018-Feb-02 05:30N 25°18' E 121°16'5 5.1
2018-Feb-02 04:30N 25°15' E 121°11'2 3.9
2018-Feb-02 04:00N 25°15' E 121°09'2 4.7
2018-Feb-02 03:30N 25°13' E 121°07'2 4.3
2018-Feb-02 03:00N 25°12' E 121°05'2 3.7
2018-Feb-02 02:30N 25°10' E 121°04'2 3.1
2018-Feb-02 02:00N 25°09' E 121°03'2 3.7
2018-Feb-02 01:30N 25°08' E 121°01'2 3.5
2018-Feb-02 01:00N 25°08' E 120°59'2 2.8
2018-Feb-02 00:28N 25°07' E 120°58'1 2.9
2018-Feb-01 23:58N 25°06' E 120°57'2 5.0
2018-Feb-01 23:29N 25°04' E 120°56'3 3.4
2018-Feb-01 22:46N 25°04' E 120°59'5 7.0
2018-Feb-01 22:00N 25°07' E 121°03'4 6.3
2018-Feb-01 21:26N 25°09' E 121°06'11 5.8
2018-Feb-01 19:30N 25°18' E 121°15'3 5.2
2018-Feb-01 19:00N 25°19' E 121°17'4 5.7
2018-Feb-01 18:23N 25°21' E 121°20'1 2.2
2018-Feb-01 17:54N 25°20' E 121°21'3 7.1
2018-Feb-01 17:28N 25°18' E 121°18'  
Track history (hours):
 
Tides and Currents Weather Stations Pressure Air Temp Water Temp Dewpoint Dewpoint Depression Visibility Wind Speed Wind Dir Waves Ship Positions

Ocean Sapphire

Last reported at 2018-Feb-11 17:05 UTC. Time now 2018-Feb-19 23:36 UTC.
Position N 23°46' E 123°09'.
Warning: this ship's position is 8 days out of date.

Length 229 m; draft 9.1 m.

Type: Cargo ship. MMSI: 477065400.

Date/timePositionNaut miles runAvg speedWind from/ knotsBaromVisibWave heightAir tempDewpointWater temp
2018-Feb-11 17:05N 23°46' E 123°09'210.7
2018-Feb-11 16:55N 23°48' E 123°08'410.9
2018-Feb-11 16:31N 23°51' E 123°05'510.7
2018-Feb-11 16:00N 23°55' E 123°01'510.7
2018-Feb-11 15:30N 23°60' E 122°58'510.6
2018-Feb-11 15:00N 24°04' E 122°54'510.7
2018-Feb-11 14:30N 24°08' E 122°50'510.8
2018-Feb-11 14:01N 24°12' E 122°46'510.4
2018-Feb-11 13:31N 24°16' E 122°43'510.4
2018-Feb-11 13:00N 24°20' E 122°39'5 9.9
2018-Feb-11 12:31N 24°24' E 122°36'510.4
2018-Feb-11 12:00N 24°29' E 122°34'510.3
2018-Feb-11 11:31N 24°34' E 122°32'510.5
2018-Feb-11 11:01N 24°38' E 122°29'510.6
2018-Feb-11 10:31N 24°42' E 122°25'510.2
2018-Feb-11 10:00N 24°46' E 122°21'510.0
2018-Feb-11 09:31N 24°50' E 122°18'5 9.7
2018-Feb-11 09:01N 24°54' E 122°15'5 9.0
2018-Feb-11 08:30N 24°58' E 122°12'1510.4
2018-Feb-11 07:03N 25°09' E 122°01'011.1
2018-Feb-11 07:01N 25°09' E 122°01'611.5
2018-Feb-11 06:30N 25°14' E 121°57'510.9
2018-Feb-11 06:00N 25°17' E 121°52'510.2
2018-Feb-11 05:30N 25°20' E 121°47'510.1
2018-Feb-11 05:00N 25°24' E 121°43'13 9.2
2018-Feb-11 03:37N 25°26' E 121°29'110.1
2018-Feb-11 03:29N 25°25' E 121°28'510.2
2018-Feb-11 03:00N 25°24' E 121°23'5 9.3
2018-Feb-11 02:27N 25°22' E 121°17'4 8.9
2018-Feb-11 02:00N 25°20' E 121°13'510.1
2018-Feb-11 01:30N 25°15' E 121°14'510.1
2018-Feb-11 01:00N 25°11' E 121°16'3 6.2
2018-Feb-11 00:30N 25°08' E 121°18'0 0.1
2018-Feb-11 00:00N 25°08' E 121°18'0 0.0
2018-Feb-10 23:21N 25°08' E 121°18'0 0.0
2018-Feb-10 22:57N 25°08' E 121°18'0 0.0
2018-Feb-10 22:30N 25°08' E 121°18'0 0.0
2018-Feb-10 22:00N 25°08' E 121°18'0 0.0
2018-Feb-10 21:30N 25°08' E 121°18'0 0.0
2018-Feb-10 21:00N 25°08' E 121°18'0 0.0
2018-Feb-10 20:30N 25°08' E 121°18'0 0.0
2018-Feb-10 19:57N 25°08' E 121°18'0 0.0
2018-Feb-10 19:27N 25°08' E 121°18'0 0.0
2018-Feb-10 19:00N 25°08' E 121°18'0 0.0
2018-Feb-10 18:27N 25°08' E 121°18'0 0.0
2018-Feb-10 17:51N 25°08' E 121°18'0 0.0
2018-Feb-10 17:30N 25°08' E 121°18'0 0.0
2018-Feb-10 17:00N 25°08' E 121°18'0 0.0
2018-Feb-10 16:27N 25°08' E 121°18'0 0.0
2018-Feb-10 16:00N 25°08' E 121°18'0 0.0
2018-Feb-10 15:30N 25°08' E 121°18'0 0.0
2018-Feb-10 15:00N 25°08' E 121°18'0 0.0
2018-Feb-10 14:30N 25°08' E 121°18'0 0.0
2018-Feb-10 14:00N 25°08' E 121°18'0 0.1
2018-Feb-10 13:30N 25°08' E 121°18'0 0.1
2018-Feb-10 13:00N 25°08' E 121°18'0 0.0
2018-Feb-10 12:24N 25°08' E 121°18'0 0.1
2018-Feb-10 11:57N 25°08' E 121°18'0 0.0
2018-Feb-10 11:18N 25°08' E 121°18'0 0.0
2018-Feb-10 10:57N 25°08' E 121°18'0 0.1
2018-Feb-10 10:30N 25°08' E 121°18'0 0.0
2018-Feb-10 09:57N 25°08' E 121°18'0 0.1
2018-Feb-10 09:30N 25°08' E 121°18'0 0.1
2018-Feb-10 09:00N 25°08' E 121°18'0 0.0
2018-Feb-10 08:30N 25°08' E 121°18'0 0.1
2018-Feb-10 07:54N 25°08' E 121°18'0 0.1
2018-Feb-10 07:30N 25°08' E 121°18'0 0.0
2018-Feb-10 06:57N 25°08' E 121°18'0 0.1
2018-Feb-10 06:27N 25°08' E 121°18'0 0.1
2018-Feb-10 06:00N 25°08' E 121°18'0 0.1
2018-Feb-10 05:30N 25°08' E 121°18'0 0.1
2018-Feb-10 04:57N 25°08' E 121°18'0 0.1
2018-Feb-10 04:30N 25°08' E 121°18'0 0.0
2018-Feb-10 04:00N 25°08' E 121°18'0 0.1
2018-Feb-10 03:30N 25°08' E 121°18'0 0.0
2018-Feb-10 03:00N 25°08' E 121°18'0 0.0
2018-Feb-10 02:27N 25°08' E 121°18'0 0.1
2018-Feb-10 02:00N 25°08' E 121°18'0 0.1
2018-Feb-10 01:27N 25°08' E 121°18'0 0.0
2018-Feb-10 01:00N 25°08' E 121°18'0 0.0
2018-Feb-10 00:30N 25°08' E 121°18'0 0.0
2018-Feb-09 23:54N 25°08' E 121°18'0 0.1
2018-Feb-09 23:30N 25°08' E 121°18'0 0.1
2018-Feb-09 23:00N 25°08' E 121°18'0 0.2
2018-Feb-09 22:45N 25°08' E 121°18'1 0.0
2018-Feb-08 08:00N 25°08' E 121°17'2 4.2
2018-Feb-08 07:30N 25°09' E 121°15'11 2.6
2018-Feb-08 03:30N 25°20' E 121°12'4 2.0
2018-Feb-08 01:30N 25°21' E 121°08'2 4.2
2018-Feb-08 01:00N 25°21' E 121°05'2 4.4
2018-Feb-08 00:30N 25°20' E 121°03'2 4.8
2018-Feb-08 00:00N 25°19' E 121°01'2 5.0
2018-Feb-07 23:30N 25°18' E 120°59'3 5.1
2018-Feb-07 22:59N 25°16' E 120°57'2 4.8
2018-Feb-07 22:30N 25°14' E 120°55'3 0.2
2018-Feb-07 03:40N 25°13' E 120°58'1 7.8
2018-Feb-07 03:30N 25°13' E 120°60'4 8.3
2018-Feb-07 03:00N 25°15' E 121°04'9 6.9
2018-Feb-07 01:44N 25°21' E 121°11'3 0.7
2018-Feb-06 22:10N 25°23' E 121°11'1 4.0
2018-Feb-06 21:57N 25°23' E 121°11'2 4.1
2018-Feb-06 21:28N 25°22' E 121°09'2 3.7
2018-Feb-06 20:58N 25°21' E 121°07'1 0.7
2018-Feb-06 19:29N 25°21' E 121°07'1 1.7
2018-Feb-06 18:56N 25°20' E 121°08'1 2.0
2018-Feb-06 18:26N 25°20' E 121°09'1 2.2
2018-Feb-06 17:47N 25°21' E 121°11'1 2.6
2018-Feb-06 17:30N 25°21' E 121°12'1 2.8
2018-Feb-06 17:00N 25°21' E 121°13'2 4.6
2018-Feb-06 16:30N 25°22' E 121°15'4 8.7
2018-Feb-06 16:00N 25°24' E 121°19'1 1.3
2018-Feb-06 15:30N 25°24' E 121°19'1 1.6
2018-Feb-06 15:00N 25°23' E 121°19'1 1.8
2018-Feb-06 14:29N 25°22' E 121°18'1 2.1
2018-Feb-06 13:57N 25°21' E 121°17'1 2.3
2018-Feb-06 13:26N 25°21' E 121°16'1 2.6
2018-Feb-06 13:00N 25°20' E 121°15'1 2.8
2018-Feb-06 12:30N 25°19' E 121°14'2 3.3
2018-Feb-06 12:00N 25°19' E 121°12'3 3.9
2018-Feb-06 11:16N 25°18' E 121°09'1 4.0
2018-Feb-06 10:57N 25°17' E 121°08'2 4.1
2018-Feb-06 10:30N 25°17' E 121°06'2 4.1
2018-Feb-06 10:00N 25°15' E 121°04'2 4.1
2018-Feb-06 09:30N 25°14' E 121°03'2 3.8
2018-Feb-06 09:00N 25°12' E 121°02'2 3.5
2018-Feb-06 08:30N 25°11' E 121°01'3 3.4
2018-Feb-06 07:30N 25°08' E 120°58'2 2.5
2018-Feb-06 06:30N 25°06' E 120°57'2 3.8
2018-Feb-06 05:57N 25°04' E 120°55'2 0.6
2018-Feb-06 02:56N 25°03' E 120°54'4 8.0
2018-Feb-06 02:30N 25°06' E 120°57'4 7.8
2018-Feb-06 02:00N 25°08' E 120°60'4 7.4
2018-Feb-06 01:30N 25°11' E 121°02'4 7.1
2018-Feb-06 00:59N 25°14' E 121°05'4 7.4
2018-Feb-06 00:30N 25°17' E 121°07'2 4.9
2018-Feb-06 00:00N 25°19' E 121°09'3 5.9
2018-Feb-05 23:29N 25°21' E 121°11'2 4.4
2018-Feb-05 22:59N 25°22' E 121°14'6 3.5
2018-Feb-05 21:17N 25°25' E 121°19'1 2.1
2018-Feb-05 20:54N 25°26' E 121°19'7 4.1
2018-Feb-05 19:13N 25°23' E 121°12'1 3.2
2018-Feb-05 19:00N 25°22' E 121°11'1 2.9
2018-Feb-05 18:30N 25°22' E 121°10'1 2.7
2018-Feb-05 18:00N 25°21' E 121°09'1 2.2
2018-Feb-05 17:30N 25°21' E 121°08'1 1.6
2018-Feb-05 17:00N 25°20' E 121°07'1 1.3
2018-Feb-05 16:30N 25°20' E 121°06'1 1.0
2018-Feb-05 15:30N 25°19' E 121°06'0 0.8
2018-Feb-05 15:00N 25°19' E 121°05'0 1.0
2018-Feb-05 14:30N 25°18' E 121°05'1 1.4
2018-Feb-05 14:00N 25°18' E 121°05'1 1.8
2018-Feb-05 13:30N 25°17' E 121°04'1 2.0
2018-Feb-05 13:00N 25°16' E 121°03'1 2.2
2018-Feb-05 12:29N 25°16' E 121°02'1 2.4
2018-Feb-05 11:55N 25°15' E 121°01'1 2.9
2018-Feb-05 11:29N 25°14' E 121°00'1 3.0
2018-Feb-05 11:00N 25°13' E 120°59'6 3.6
2018-Feb-05 09:18N 25°08' E 120°54'2 5.9
2018-Feb-05 09:00N 25°07' E 120°53'3 2.5
2018-Feb-05 07:53N 25°05' E 120°51'1 3.1
2018-Feb-05 07:29N 25°05' E 120°50'11 4.8
2018-Feb-05 05:10N 25°13' E 120°58'1 7.9
2018-Feb-05 04:59N 25°14' E 120°59'4 8.1
2018-Feb-05 04:30N 25°16' E 121°02'5 8.2
2018-Feb-05 03:56N 25°20' E 121°06'4 8.4
2018-Feb-05 03:31N 25°22' E 121°09'4 8.8
2018-Feb-05 03:00N 25°25' E 121°13'1 1.0
2018-Feb-05 01:35N 25°23' E 121°13'0 2.6
2018-Feb-05 01:30N 25°23' E 121°13'1 2.5
2018-Feb-05 01:00N 25°22' E 121°14'1 2.2
2018-Feb-05 00:30N 25°21' E 121°15'1 2.1
2018-Feb-05 00:00N 25°20' E 121°15'1 2.1
2018-Feb-04 23:30N 25°19' E 121°15'2 3.7
2018-Feb-04 23:00N 25°18' E 121°15'2 3.4
2018-Feb-04 22:30N 25°17' E 121°13'2 3.6
2018-Feb-04 21:59N 25°16' E 121°11'2 3.1
2018-Feb-04 21:30N 25°15' E 121°10'2 3.7
2018-Feb-04 20:59N 25°14' E 121°08'4 3.9
2018-Feb-04 20:00N 25°12' E 121°05'2 3.6
2018-Feb-04 19:30N 25°11' E 121°03'2 3.5
2018-Feb-04 19:00N 25°10' E 121°01'2 4.1
2018-Feb-04 18:28N 25°09' E 120°59'2 3.8
2018-Feb-04 18:00N 25°08' E 120°58'2 3.6
2018-Feb-04 17:30N 25°06' E 120°56'5 2.3
2018-Feb-04 15:30N 25°04' E 120°52'1 1.9
2018-Feb-04 15:00N 25°03' E 120°52'3 1.8
2018-Feb-04 13:28N 25°01' E 120°50'4 2.2
2018-Feb-04 11:37N 24°58' E 120°47'13 2.6
2018-Feb-04 06:28N 25°06' E 120°58'4 8.5
2018-Feb-04 06:00N 25°09' E 121°01'4 7.1
2018-Feb-04 05:30N 25°11' E 121°05'510.6
2018-Feb-04 05:00N 25°15' E 121°09'714.1
2018-Feb-04 04:30N 25°19' E 121°15'4 4.8
2018-Feb-04 03:46N 25°21' E 121°18'0 1.4
2018-Feb-04 03:28N 25°21' E 121°18'1 1.3
2018-Feb-04 02:56N 25°21' E 121°17'1 1.1
2018-Feb-04 02:28N 25°20' E 121°17'1 0.9
2018-Feb-04 01:56N 25°20' E 121°16'0 1.0
2018-Feb-04 01:28N 25°20' E 121°16'1 1.5
2018-Feb-04 01:00N 25°19' E 121°15'1 1.8
2018-Feb-04 00:30N 25°19' E 121°14'1 2.0
2018-Feb-04 00:00N 25°18' E 121°13'1 2.8
2018-Feb-03 23:30N 25°18' E 121°12'1 3.0
2018-Feb-03 23:01N 25°17' E 121°10'2 3.7
2018-Feb-03 22:30N 25°16' E 121°09'2 3.8
2018-Feb-03 22:00N 25°15' E 121°08'2 3.6
2018-Feb-03 21:30N 25°13' E 121°06'2 3.3
2018-Feb-03 21:00N 25°13' E 121°04'2 3.5
2018-Feb-03 20:30N 25°13' E 121°03'2 3.7
2018-Feb-03 19:58N 25°12' E 121°00'6 4.0
2018-Feb-03 18:31N 25°08' E 120°55'2 3.6
2018-Feb-03 18:00N 25°07' E 120°54'2 3.7
2018-Feb-03 17:24N 25°06' E 120°52'3 3.3
2018-Feb-03 16:35N 25°04' E 120°49'2 2.6
2018-Feb-03 15:51N 25°03' E 120°48'16 5.9
2018-Feb-03 13:05N 25°11' E 121°04'1 8.5
2018-Feb-03 13:00N 25°11' E 121°04'4 8.5
2018-Feb-03 12:30N 25°13' E 121°08'4 8.3
2018-Feb-03 12:00N 25°15' E 121°12'4 7.8
2018-Feb-03 11:30N 25°18' E 121°16'4 7.3
2018-Feb-03 10:59N 25°20' E 121°19'3 6.5
2018-Feb-03 10:30N 25°22' E 121°22'2 3.3
2018-Feb-03 10:00N 25°21' E 121°20'2 4.2
2018-Feb-03 09:30N 25°20' E 121°19'2 3.1
2018-Feb-03 09:00N 25°19' E 121°17'2 4.6
2018-Feb-03 08:30N 25°18' E 121°15'2 4.2
2018-Feb-03 08:00N 25°16' E 121°13'9 6.1
2018-Feb-03 06:30N 25°11' E 121°05'510.2
2018-Feb-03 05:58N 25°08' E 121°00'4 8.3
2018-Feb-03 05:30N 25°05' E 120°57'2 3.1
2018-Feb-03 04:59N 25°04' E 120°56'3 2.5
2018-Feb-03 03:42N 25°02' E 120°53'1 2.3
2018-Feb-03 03:13N 25°01' E 120°52'3 1.3
2018-Feb-03 01:13N 25°02' E 120°55'410.8
2018-Feb-03 00:52N 25°04' E 120°58'3 9.1
2018-Feb-03 00:29N 25°06' E 121°01'4 8.9
2018-Feb-03 00:00N 25°09' E 121°05'4 8.5
2018-Feb-02 23:29N 25°12' E 121°08'4 8.1
2018-Feb-02 23:01N 25°15' E 121°11'4 7.4
2018-Feb-02 22:30N 25°17' E 121°14'4 6.5
2018-Feb-02 21:50N 25°20' E 121°18'2 5.9
2018-Feb-02 21:27N 25°22' E 121°20'1 1.8
2018-Feb-02 20:57N 25°23' E 121°20'1 3.1
2018-Feb-02 20:31N 25°22' E 121°19'2 3.8
2018-Feb-02 20:00N 25°21' E 121°17'5 4.8
2018-Feb-02 19:00N 25°18' E 121°12'3 5.3
2018-Feb-02 18:30N 25°16' E 121°10'2 4.8
2018-Feb-02 18:00N 25°15' E 121°08'3 6.5
2018-Feb-02 17:30N 25°13' E 121°05'2 4.5
2018-Feb-02 17:00N 25°12' E 121°03'2 3.5
2018-Feb-02 16:30N 25°11' E 121°02'4 4.0
2018-Feb-02 15:29N 25°08' E 120°59'3 3.5
2018-Feb-02 14:31N 25°05' E 120°56'1 2.7
2018-Feb-02 14:00N 25°04' E 120°55'3 1.0
2018-Feb-02 11:06N 25°04' E 120°58'1 7.3
2018-Feb-02 11:00N 25°04' E 120°59'4 7.2
2018-Feb-02 10:29N 25°06' E 121°02'3 7.0
2018-Feb-02 10:00N 25°08' E 121°05'3 6.4
2018-Feb-02 09:30N 25°10' E 121°08'3 6.1
2018-Feb-02 09:00N 25°12' E 121°10'3 6.6
2018-Feb-02 08:30N 25°14' E 121°13'3 6.5
2018-Feb-02 08:01N 25°16' E 121°16'4 7.3
2018-Feb-02 07:30N 25°18' E 121°20'4 7.1
2018-Feb-02 07:00N 25°20' E 121°23'1 2.1
2018-Feb-02 06:31N 25°21' E 121°21'3 6.5
2018-Feb-02 06:00N 25°19' E 121°18'2 4.3
2018-Feb-02 05:30N 25°18' E 121°16'5 5.1
2018-Feb-02 04:30N 25°15' E 121°11'2 3.9
2018-Feb-02 04:00N 25°15' E 121°09'2 4.7
2018-Feb-02 03:30N 25°13' E 121°07'2 4.3
2018-Feb-02 03:00N 25°12' E 121°05'2 3.7
2018-Feb-02 02:30N 25°10' E 121°04'2 3.1
2018-Feb-02 02:00N 25°09' E 121°03'2 3.7
2018-Feb-02 01:30N 25°08' E 121°01'2 3.5
2018-Feb-02 01:00N 25°08' E 120°59'2 2.8
2018-Feb-02 00:28N 25°07' E 120°58'1 2.9
2018-Feb-01 23:58N 25°06' E 120°57'2 5.0
2018-Feb-01 23:29N 25°04' E 120°56'3 3.4
2018-Feb-01 22:46N 25°04' E 120°59'5 7.0
2018-Feb-01 22:00N 25°07' E 121°03'4 6.3
2018-Feb-01 21:26N 25°09' E 121°06'11 5.8
2018-Feb-01 19:30N 25°18' E 121°15'3 5.2
2018-Feb-01 19:00N 25°19' E 121°17'4 5.7
2018-Feb-01 18:23N 25°21' E 121°20'1 2.2
2018-Feb-01 17:54N 25°20' E 121°21'3 7.1
2018-Feb-01 17:28N 25°18' E 121°18'  

Dump ship's entire track history